sensor_id;sensor_type;location;lat;lon;timestamp;pressure;altitude;pressure_sealevel;temperature;humidity
59419;BME280;45224;50.904;6.038;2023-05-29T00:00:10;100294.56;;;14.91;69.49
59419;BME280;45224;50.904;6.038;2023-05-29T00:01:43;100293.66;;;14.97;69.12
59419;BME280;45224;50.904;6.038;2023-05-29T00:03:14;100288.63;;;14.75;70.47
59419;BME280;45224;50.904;6.038;2023-05-29T00:04:44;100285.09;;;14.86;69.98
59419;BME280;45224;50.904;6.038;2023-05-29T00:06:15;100300.56;;;14.98;69.17
59419;BME280;45224;50.904;6.038;2023-05-29T00:07:45;100287.56;;;14.98;69.14
59419;BME280;45224;50.904;6.038;2023-05-29T00:09:16;100297.00;;;15.08;68.47
59419;BME280;45224;50.904;6.038;2023-05-29T00:10:46;100290.91;;;15.08;68.68
59419;BME280;45224;50.904;6.038;2023-05-29T00:12:17;100285.88;;;14.94;69.31
59419;BME280;45224;50.904;6.038;2023-05-29T00:13:49;100293.75;;;14.88;69.68
59419;BME280;45224;50.904;6.038;2023-05-29T00:15:19;100297.16;;;14.93;69.42
59419;BME280;45224;50.904;6.038;2023-05-29T00:16:51;100288.34;;;15.03;68.47
59419;BME280;45224;50.904;6.038;2023-05-29T00:18:22;100291.97;;;14.90;69.35
59419;BME280;45224;50.904;6.038;2023-05-29T00:19:53;100289.38;;;14.90;69.30
59419;BME280;45224;50.904;6.038;2023-05-29T00:21:23;100294.56;;;14.93;69.17
59419;BME280;45224;50.904;6.038;2023-05-29T00:22:54;100299.97;;;14.73;70.13
59419;BME280;45224;50.904;6.038;2023-05-29T00:24:24;100297.22;;;14.87;69.19
59419;BME280;45224;50.904;6.038;2023-05-29T00:25:55;100291.06;;;14.95;68.73
59419;BME280;45224;50.904;6.038;2023-05-29T00:27:25;100302.25;;;15.05;68.25
59419;BME280;45224;50.904;6.038;2023-05-29T00:28:56;100297.91;;;15.06;68.13
59419;BME280;45224;50.904;6.038;2023-05-29T00:30:26;100297.25;;;14.81;69.54
59419;BME280;45224;50.904;6.038;2023-05-29T00:31:57;100299.97;;;14.70;70.25
59419;BME280;45224;50.904;6.038;2023-05-29T00:33:27;100303.44;;;14.69;70.05
59419;BME280;45224;50.904;6.038;2023-05-29T00:34:58;100304.31;;;14.69;69.81
59419;BME280;45224;50.904;6.038;2023-05-29T00:36:29;100305.44;;;14.34;71.28
59419;BME280;45224;50.904;6.038;2023-05-29T00:37:59;100308.84;;;14.41;71.20
59419;BME280;45224;50.904;6.038;2023-05-29T00:39:30;100310.47;;;14.60;70.04
59419;BME280;45224;50.904;6.038;2023-05-29T00:41:01;100312.22;;;14.60;70.28
59419;BME280;45224;50.904;6.038;2023-05-29T00:42:32;100307.78;;;14.71;69.23
59419;BME280;45224;50.904;6.038;2023-05-29T00:44:03;100307.66;;;14.82;68.39
59419;BME280;45224;50.904;6.038;2023-05-29T00:45:34;100312.06;;;14.75;69.07
59419;BME280;45224;50.904;6.038;2023-05-29T00:47:06;100313.91;;;14.61;69.70
59419;BME280;45224;50.904;6.038;2023-05-29T00:48:37;100311.38;;;14.53;69.67
59419;BME280;45224;50.904;6.038;2023-05-29T00:50:09;100313.91;;;14.63;69.00
59419;BME280;45224;50.904;6.038;2023-05-29T00:51:42;100309.59;;;14.58;69.39
59419;BME280;45224;50.904;6.038;2023-05-29T00:53:14;100305.31;;;14.50;69.67
59419;BME280;45224;50.904;6.038;2023-05-29T00:54:45;100312.22;;;14.55;69.41
59419;BME280;45224;50.904;6.038;2023-05-29T00:56:16;100307.94;;;14.47;69.86
59419;BME280;45224;50.904;6.038;2023-05-29T00:57:47;100309.91;;;14.11;71.59
59419;BME280;45224;50.904;6.038;2023-05-29T00:59:20;100309.81;;;14.29;70.43
59419;BME280;45224;50.904;6.038;2023-05-29T01:00:52;100313.34;;;14.16;70.87
59419;BME280;45224;50.904;6.038;2023-05-29T01:02:23;100313.28;;;14.25;70.78
59419;BME280;45224;50.904;6.038;2023-05-29T01:03:55;100310.75;;;14.16;71.14
59419;BME280;45224;50.904;6.038;2023-05-29T01:05:27;100311.63;;;14.15;70.91
59419;BME280;45224;50.904;6.038;2023-05-29T01:07:00;100314.13;;;14.27;70.01
59419;BME280;45224;50.904;6.038;2023-05-29T01:08:32;100320.09;;;14.41;69.17
59419;BME280;45224;50.904;6.038;2023-05-29T01:10:04;100316.66;;;14.42;69.46
59419;BME280;45224;50.904;6.038;2023-05-29T01:11:43;100321.88;;;14.36;69.67
59419;BME280;45224;50.904;6.038;2023-05-29T01:13:22;100319.34;;;14.27;69.99
59419;BME280;45224;50.904;6.038;2023-05-29T01:17:11;100326.28;;;14.30;69.77
59419;BME280;45224;50.904;6.038;2023-05-29T01:18:57;100323.63;;;14.36;69.27
59419;BME280;45224;50.904;6.038;2023-05-29T01:20:49;100321.09;;;14.23;69.66
59419;BME280;45224;50.904;6.038;2023-05-29T01:24:26;100329.78;;;14.22;69.37
59419;BME280;45224;50.904;6.038;2023-05-29T01:26:21;100335.84;;;14.23;69.64
59419;BME280;45224;50.904;6.038;2023-05-29T01:27:57;100333.34;;;14.07;70.09
59419;BME280;45224;50.904;6.038;2023-05-29T01:29:34;100337.56;;;14.21;69.52
59419;BME280;45224;50.904;6.038;2023-05-29T01:31:05;100328.13;;;14.07;70.01
59419;BME280;45224;50.904;6.038;2023-05-29T01:32:38;100328.91;;;14.22;69.22
59419;BME280;45224;50.904;6.038;2023-05-29T01:34:09;100334.97;;;14.24;68.76
59419;BME280;45224;50.904;6.038;2023-05-29T01:35:40;100333.19;;;14.31;68.33
59419;BME280;45224;50.904;6.038;2023-05-29T01:37:13;100331.66;;;14.02;70.16
59419;BME280;45224;50.904;6.038;2023-05-29T01:38:44;100339.34;;;14.19;69.11
59419;BME280;45224;50.904;6.038;2023-05-29T01:40:15;100336.78;;;14.08;69.70
59419;BME280;45224;50.904;6.038;2023-05-29T01:41:46;100341.06;;;14.20;68.80
59419;BME280;45224;50.904;6.038;2023-05-29T01:43:17;100343.78;;;13.97;70.18
59419;BME280;45224;50.904;6.038;2023-05-29T01:44:48;100342.13;;;13.85;70.69
59419;BME280;45224;50.904;6.038;2023-05-29T01:46:20;100346.38;;;13.98;69.95
59419;BME280;45224;50.904;6.038;2023-05-29T01:47:52;100350.03;;;13.54;71.98
59419;BME280;45224;50.904;6.038;2023-05-29T01:49:26;100338.81;;;13.38;72.89
59419;BME280;45224;50.904;6.038;2023-05-29T01:50:58;100345.75;;;13.42;72.93
59419;BME280;45224;50.904;6.038;2023-05-29T01:52:29;100349.19;;;13.44;72.50
59419;BME280;45224;50.904;6.038;2023-05-29T01:54:00;100353.47;;;13.59;71.39
59419;BME280;45224;50.904;6.038;2023-05-29T01:55:31;100353.44;;;13.67;71.38
59419;BME280;45224;50.904;6.038;2023-05-29T01:57:01;100347.41;;;13.59;71.79
59419;BME280;45224;50.904;6.038;2023-05-29T01:58:34;100345.75;;;13.44;72.49
59419;BME280;45224;50.904;6.038;2023-05-29T02:00:05;100346.59;;;13.52;71.85
59419;BME280;45224;50.904;6.038;2023-05-29T02:01:44;100359.59;;;13.43;72.75
59419;BME280;45224;50.904;6.038;2023-05-29T02:03:15;100346.59;;;13.41;72.65
59419;BME280;45224;50.904;6.038;2023-05-29T02:04:46;100361.28;;;13.53;72.00
59419;BME280;45224;50.904;6.038;2023-05-29T02:06:16;100360.47;;;13.39;73.12
59419;BME280;45224;50.904;6.038;2023-05-29T02:07:47;100357.84;;;13.40;72.91
59419;BME280;45224;50.904;6.038;2023-05-29T02:09:17;100357.03;;;12.93;75.93
59419;BME280;45224;50.904;6.038;2023-05-29T02:10:48;100358.75;;;13.13;74.67
59419;BME280;45224;50.904;6.038;2023-05-29T02:12:19;100357.03;;;13.09;75.44
59419;BME280;45224;50.904;6.038;2023-05-29T02:13:49;100364.81;;;13.04;75.63
59419;BME280;45224;50.904;6.038;2023-05-29T02:15:22;100358.75;;;13.07;75.54
59419;BME280;45224;50.904;6.038;2023-05-29T02:16:52;100357.03;;;13.00;76.12
59419;BME280;45224;50.904;6.038;2023-05-29T02:18:23;100364.81;;;12.46;79.40
59419;BME280;45224;50.904;6.038;2023-05-29T02:19:53;100361.38;;;12.67;78.40
59419;BME280;45224;50.904;6.038;2023-05-29T02:21:24;100362.22;;;12.44;79.98
59419;BME280;45224;50.904;6.038;2023-05-29T02:22:54;100365.69;;;12.52;80.23
59419;BME280;45224;50.904;6.038;2023-05-29T02:24:25;100359.63;;;12.67;78.67
59419;BME280;45224;50.904;6.038;2023-05-29T02:25:55;100363.09;;;12.57;79.91
59419;BME280;45224;50.904;6.038;2023-05-29T02:27:26;100358.78;;;12.70;78.63
59419;BME280;45224;50.904;6.038;2023-05-29T02:28:56;100363.09;;;12.78;77.84
59419;BME280;45224;50.904;6.038;2023-05-29T02:30:28;100363.97;;;12.76;78.48
59419;BME280;45224;50.904;6.038;2023-05-29T02:31:58;100371.72;;;12.60;79.85
59419;BME280;45224;50.904;6.038;2023-05-29T02:33:29;100362.22;;;12.53;80.91
59419;BME280;45224;50.904;6.038;2023-05-29T02:35:00;100362.19;;;12.41;80.98
59419;BME280;45224;50.904;6.038;2023-05-29T02:36:30;100375.19;;;12.50;80.90
59419;BME280;45224;50.904;6.038;2023-05-29T02:38:02;100368.25;;;12.43;81.43
59419;BME280;45224;50.904;6.038;2023-05-29T02:39:32;100370.84;;;12.34;82.61
59419;BME280;45224;50.904;6.038;2023-05-29T02:41:03;100372.56;;;12.41;82.23
59419;BME280;45224;50.904;6.038;2023-05-29T02:42:33;100376.00;;;12.37;82.76
59419;BME280;45224;50.904;6.038;2023-05-29T02:44:04;100375.19;;;12.46;81.70
59419;BME280;45224;50.904;6.038;2023-05-29T02:45:34;100379.50;;;12.42;82.53
59419;BME280;45224;50.904;6.038;2023-05-29T02:47:05;100376.66;;;11.74;87.38
59419;BME280;45224;50.904;6.038;2023-05-29T02:48:36;100368.88;;;11.80;88.01
59419;BME280;45224;50.904;6.038;2023-05-29T02:50:06;100374.97;;;11.84;87.53
59419;BME280;45224;50.904;6.038;2023-05-29T02:51:38;100373.22;;;11.78;87.90
59419;BME280;45224;50.904;6.038;2023-05-29T02:53:09;100367.00;;;11.42;90.06
59419;BME280;45224;50.904;6.038;2023-05-29T02:54:40;100371.34;;;11.52;89.99
59419;BME280;45224;50.904;6.038;2023-05-29T02:56:10;100368.81;;;11.62;89.36
59419;BME280;45224;50.904;6.038;2023-05-29T02:57:42;100383.31;;;11.29;91.45
59419;BME280;45224;50.904;6.038;2023-05-29T02:59:13;100378.81;;;11.03;92.82
59419;BME280;45224;50.904;6.038;2023-05-29T03:00:43;100380.59;;;11.13;94.12
59419;BME280;45224;50.904;6.038;2023-05-29T03:02:14;100371.97;;;11.11;93.91
59419;BME280;45224;50.904;6.038;2023-05-29T03:03:44;100373.75;;;11.19;93.23
59419;BME280;45224;50.904;6.038;2023-05-29T03:05:16;100378.00;;;11.12;94.54
59419;BME280;45224;50.904;6.038;2023-05-29T03:06:47;100379.59;;;10.94;94.39
59419;BME280;45224;50.904;6.038;2023-05-29T03:08:19;100378.66;;;10.85;96.02
59419;BME280;45224;50.904;6.038;2023-05-29T03:09:49;100384.03;;;11.09;94.84
59419;BME280;45224;50.904;6.038;2023-05-29T03:11:21;100395.13;;;10.94;95.53
59419;BME280;45224;50.904;6.038;2023-05-29T03:12:53;100388.31;;;11.07;94.94
59419;BME280;45224;50.904;6.038;2023-05-29T03:14:24;100390.09;;;11.13;94.00
59419;BME280;45224;50.904;6.038;2023-05-29T03:15:55;100388.38;;;11.12;94.84
59419;BME280;45224;50.904;6.038;2023-05-29T03:17:27;100396.06;;;11.04;94.85
59419;BME280;45224;50.904;6.038;2023-05-29T03:19:01;100385.69;;;11.01;95.21
59419;BME280;45224;50.904;6.038;2023-05-29T03:20:32;100389.16;;;11.03;95.00
59419;BME280;45224;50.904;6.038;2023-05-29T03:22:04;100380.53;;;11.04;94.78
59419;BME280;45224;50.904;6.038;2023-05-29T03:23:37;100387.31;;;10.87;95.89
59419;BME280;45224;50.904;6.038;2023-05-29T03:25:07;100383.81;;;10.82;96.41
59419;BME280;45224;50.904;6.038;2023-05-29T03:26:38;100387.09;;;10.62;97.58
59419;BME280;45224;50.904;6.038;2023-05-29T03:28:09;100384.44;;;10.56;97.97
59419;BME280;45224;50.904;6.038;2023-05-29T03:29:40;100384.50;;;10.64;98.12
59419;BME280;45224;50.904;6.038;2023-05-29T03:31:11;100399.09;;;10.57;98.34
59419;BME280;45224;50.904;6.038;2023-05-29T03:32:42;100394.78;;;10.53;98.23
59419;BME280;45224;50.904;6.038;2023-05-29T03:34:13;100391.34;;;10.55;97.65
59419;BME280;45224;50.904;6.038;2023-05-29T03:35:51;100394.72;;;10.47;98.73
59419;BME280;45224;50.904;6.038;2023-05-29T03:37:22;100389.56;;;10.48;98.56
59419;BME280;45224;50.904;6.038;2023-05-29T03:38:52;100388.69;;;10.51;98.37
59419;BME280;45224;50.904;6.038;2023-05-29T03:40:24;100388.88;;;10.66;97.13
59419;BME280;45224;50.904;6.038;2023-05-29T03:41:54;100393.69;;;10.32;98.34
59419;BME280;45224;50.904;6.038;2023-05-29T03:43:25;100401.53;;;10.40;99.07
59419;BME280;45224;50.904;6.038;2023-05-29T03:44:55;100387.59;;;10.27;98.58
59419;BME280;45224;50.904;6.038;2023-05-29T03:46:27;100386.75;;;10.31;98.66
59419;BME280;45224;50.904;6.038;2023-05-29T03:47:58;100388.59;;;10.41;98.47
59419;BME280;45224;50.904;6.038;2023-05-29T03:49:28;100385.13;;;10.39;97.48
59419;BME280;45224;50.904;6.038;2023-05-29T03:50:59;100381.53;;;10.28;98.28
59419;BME280;45224;50.904;6.038;2023-05-29T03:52:35;100396.94;;;10.19;98.93
59419;BME280;45224;50.904;6.038;2023-05-29T03:54:06;100388.28;;;10.14;98.88
59419;BME280;45224;50.904;6.038;2023-05-29T03:55:39;100387.50;;;10.21;98.24
59419;BME280;45224;50.904;6.038;2023-05-29T03:57:12;100400.44;;;10.21;98.04
59419;BME280;45224;50.904;6.038;2023-05-29T03:58:43;100399.63;;;10.27;97.64
59419;BME280;45224;50.904;6.038;2023-05-29T04:00:14;100396.84;;;10.10;97.87
59419;BME280;45224;50.904;6.038;2023-05-29T04:01:45;100401.13;;;10.09;97.65
59419;BME280;45224;50.904;6.038;2023-05-29T04:03:15;100396.94;;;10.16;97.82
59419;BME280;45224;50.904;6.038;2023-05-29T04:04:46;100407.13;;;10.03;97.43
59419;BME280;45224;50.904;6.038;2023-05-29T04:06:17;100407.31;;;10.22;96.48
59419;BME280;45224;50.904;6.038;2023-05-29T04:07:48;100408.88;;;10.08;96.61
59419;BME280;45224;50.904;6.038;2023-05-29T04:09:19;100404.63;;;10.11;96.20
59419;BME280;45224;50.904;6.038;2023-05-29T04:10:49;100411.63;;;10.21;95.55
59419;BME280;45224;50.904;6.038;2023-05-29T04:12:25;100410.94;;;10.35;94.92
59419;BME280;45224;50.904;6.038;2023-05-29T04:13:55;100413.59;;;10.43;94.17
59419;BME280;45224;50.904;6.038;2023-05-29T04:15:27;100415.50;;;10.60;92.39
59419;BME280;45224;50.904;6.038;2023-05-29T04:16:58;100415.50;;;10.60;92.30
59419;BME280;45224;50.904;6.038;2023-05-29T04:18:28;100418.97;;;10.59;91.81
59419;BME280;45224;50.904;6.038;2023-05-29T04:19:59;100423.28;;;10.62;91.53
59419;BME280;45224;50.904;6.038;2023-05-29T04:21:33;100431.66;;;10.39;91.99
59419;BME280;45224;50.904;6.038;2023-05-29T04:23:05;100433.44;;;10.44;92.56
59419;BME280;45224;50.904;6.038;2023-05-29T04:24:36;100433.44;;;10.44;92.22
59419;BME280;45224;50.904;6.038;2023-05-29T04:26:07;100428.28;;;10.44;92.02
59419;BME280;45224;50.904;6.038;2023-05-29T04:27:40;100438.72;;;10.53;91.82
59419;BME280;45224;50.904;6.038;2023-05-29T04:29:13;100437.13;;;10.64;91.31
59419;BME280;45224;50.904;6.038;2023-05-29T04:30:45;100441.38;;;10.62;90.57
59419;BME280;45224;50.904;6.038;2023-05-29T04:32:16;100435.19;;;10.48;91.58
59419;BME280;45224;50.904;6.038;2023-05-29T04:33:47;100438.72;;;10.53;90.96
59419;BME280;45224;50.904;6.038;2023-05-29T04:35:19;100437.84;;;10.54;90.55
59419;BME280;45224;50.904;6.038;2023-05-29T04:36:58;100444.75;;;10.53;90.66
59419;BME280;45224;50.904;6.038;2023-05-29T04:38:28;100445.69;;;10.60;89.95
59419;BME280;45224;50.904;6.038;2023-05-29T04:39:59;100440.69;;;10.78;88.92
59419;BME280;45224;50.904;6.038;2023-05-29T04:41:33;100452.94;;;10.95;88.20
59419;BME280;45224;50.904;6.038;2023-05-29T04:43:05;100457.28;;;11.02;87.61
59419;BME280;45224;50.904;6.038;2023-05-29T04:44:51;100449.41;;;10.87;87.56
59419;BME280;45224;50.904;6.038;2023-05-29T04:46:25;100451.09;;;10.85;87.72
59419;BME280;45224;50.904;6.038;2023-05-29T04:47:56;100447.78;;;10.96;87.25
59419;BME280;45224;50.904;6.038;2023-05-29T04:49:28;100449.16;;;10.64;87.23
59419;BME280;45224;50.904;6.038;2023-05-29T04:50:59;100456.38;;;10.97;86.39
59419;BME280;45224;50.904;6.038;2023-05-29T04:52:30;100451.09;;;10.85;86.22
59419;BME280;45224;50.904;6.038;2023-05-29T04:54:00;100442.53;;;10.90;85.59
59419;BME280;45224;50.904;6.038;2023-05-29T04:55:31;100449.34;;;10.82;85.91
59419;BME280;45224;50.904;6.038;2023-05-29T04:57:02;100444.19;;;10.84;85.28
59419;BME280;45224;50.904;6.038;2023-05-29T04:58:38;100451.03;;;10.78;84.60
59419;BME280;45224;50.904;6.038;2023-05-29T05:00:09;100444.03;;;10.68;84.65
59419;BME280;45224;50.904;6.038;2023-05-29T05:01:44;100440.72;;;10.82;84.00
59419;BME280;45224;50.904;6.038;2023-05-29T05:03:15;100466.66;;;10.88;83.71
59419;BME280;45224;50.904;6.038;2023-05-29T05:04:47;100449.28;;;10.76;83.93
59419;BME280;45224;50.904;6.038;2023-05-29T05:06:18;100458.00;;;10.86;83.00
59419;BME280;45224;50.904;6.038;2023-05-29T05:07:48;100451.06;;;10.82;82.33
59419;BME280;45224;50.904;6.038;2023-05-29T05:09:19;100448.56;;;10.91;82.23
59419;BME280;45224;50.904;6.038;2023-05-29T05:10:50;100459.44;;;10.59;83.19
59419;BME280;45224;50.904;6.038;2023-05-29T05:12:21;100452.63;;;10.67;83.97
59419;BME280;45224;50.904;6.038;2023-05-29T05:13:52;100451.78;;;10.68;83.82
59419;BME280;45224;50.904;6.038;2023-05-29T05:15:22;100452.63;;;10.67;83.65
59419;BME280;45224;50.904;6.038;2023-05-29T05:16:53;100461.44;;;10.85;82.81
59419;BME280;45224;50.904;6.038;2023-05-29T05:18:23;100451.97;;;10.84;82.30
59419;BME280;45224;50.904;6.038;2023-05-29T05:20:05;100463.06;;;10.75;82.00
59419;BME280;45224;50.904;6.038;2023-05-29T05:21:37;100469.00;;;10.65;83.03
59419;BME280;45224;50.904;6.038;2023-05-29T05:23:07;100468.00;;;10.52;82.78
59419;BME280;45224;50.904;6.038;2023-05-29T05:24:38;100463.66;;;10.49;82.91
59419;BME280;45224;50.904;6.038;2023-05-29T05:26:08;100474.03;;;10.52;83.65
59419;BME280;45224;50.904;6.038;2023-05-29T05:27:40;100475.84;;;10.59;83.16
59419;BME280;45224;50.904;6.038;2023-05-29T05:29:11;100475.16;;;10.76;82.85
59419;BME280;45224;50.904;6.038;2023-05-29T05:30:43;100477.00;;;10.88;82.57
59419;BME280;45224;50.904;6.038;2023-05-29T05:32:14;100471.88;;;10.94;82.36
59419;BME280;45224;50.904;6.038;2023-05-29T05:33:45;100481.41;;;11.00;82.28
59419;BME280;45224;50.904;6.038;2023-05-29T05:35:16;100477.28;;;11.22;81.37
59419;BME280;45224;50.904;6.038;2023-05-29T05:36:47;100484.03;;;11.04;82.34
59419;BME280;45224;50.904;6.038;2023-05-29T05:38:18;100481.47;;;11.07;82.44
59419;BME280;45224;50.904;6.038;2023-05-29T05:39:52;100489.31;;;11.13;82.07
59419;BME280;45224;50.904;6.038;2023-05-29T05:41:24;100490.41;;;11.42;80.61
59419;BME280;45224;50.904;6.038;2023-05-29T05:42:56;100486.91;;;11.37;80.05
59419;BME280;45224;50.904;6.038;2023-05-29T05:44:39;100485.22;;;11.45;80.01
59419;BME280;45224;50.904;6.038;2023-05-29T05:46:13;100493.94;;;11.51;78.87
59419;BME280;45224;50.904;6.038;2023-05-29T05:47:46;100491.38;;;11.58;78.86
59419;BME280;45224;50.904;6.038;2023-05-29T05:49:17;100484.53;;;11.64;78.63
59419;BME280;45224;50.904;6.038;2023-05-29T05:50:48;100488.03;;;11.71;78.14
59419;BME280;45224;50.904;6.038;2023-05-29T05:52:19;100492.22;;;11.54;78.11
59419;BME280;45224;50.904;6.038;2023-05-29T05:53:49;100493.94;;;11.56;78.72
59419;BME280;45224;50.904;6.038;2023-05-29T05:55:20;100490.56;;;11.63;77.66
59419;BME280;45224;50.904;6.038;2023-05-29T05:56:52;100493.13;;;11.62;77.77
59419;BME280;45224;50.904;6.038;2023-05-29T05:58:23;100493.88;;;11.45;79.05
59419;BME280;45224;50.904;6.038;2023-05-29T05:59:54;100496.66;;;11.70;77.68
59419;BME280;45224;50.904;6.038;2023-05-29T06:01:26;100491.47;;;11.72;77.67
59419;BME280;45224;50.904;6.038;2023-05-29T06:02:57;100495.00;;;11.81;77.75
59419;BME280;45224;50.904;6.038;2023-05-29T06:04:56;100490.63;;;11.79;78.18
59419;BME280;45224;50.904;6.038;2023-05-29T06:06:27;100488.09;;;11.83;77.61
59419;BME280;45224;50.904;6.038;2023-05-29T06:07:57;100491.63;;;11.95;77.74
59419;BME280;45224;50.904;6.038;2023-05-29T06:09:28;100486.59;;;12.19;76.04
59419;BME280;45224;50.904;6.038;2023-05-29T06:11:00;100481.44;;;12.32;75.84
59419;BME280;45224;50.904;6.038;2023-05-29T06:12:30;100488.44;;;12.45;74.71
59419;BME280;45224;50.904;6.038;2023-05-29T06:14:11;100486.63;;;12.32;75.30
59419;BME280;45224;50.904;6.038;2023-05-29T06:15:42;100487.50;;;12.29;74.87
59419;BME280;45224;50.904;6.038;2023-05-29T06:17:13;100492.41;;;11.84;75.74
59419;BME280;45224;50.904;6.038;2023-05-29T06:18:43;100498.47;;;11.86;75.95
59419;BME280;45224;50.904;6.038;2023-05-29T06:20:14;100496.06;;;12.17;74.91
59419;BME280;45224;50.904;6.038;2023-05-29T06:21:45;100495.16;;;12.09;75.29
59419;BME280;45224;50.904;6.038;2023-05-29T06:23:16;100499.44;;;11.99;75.87
59419;BME280;45224;50.904;6.038;2023-05-29T06:24:46;100498.53;;;11.93;76.03
59419;BME280;45224;50.904;6.038;2023-05-29T06:26:17;100498.47;;;11.86;76.27
59419;BME280;45224;50.904;6.038;2023-05-29T06:27:48;100489.19;;;12.19;74.93
59419;BME280;45224;50.904;6.038;2023-05-29T06:29:18;100490.97;;;12.33;74.76
59419;BME280;45224;50.904;6.038;2023-05-29T06:30:49;100503.06;;;12.29;75.59
59419;BME280;45224;50.904;6.038;2023-05-29T06:32:20;100503.94;;;12.37;74.28
59419;BME280;45224;50.904;6.038;2023-05-29T06:33:50;100501.41;;;12.45;74.54
59419;BME280;45224;50.904;6.038;2023-05-29T06:35:21;100508.38;;;12.75;73.98
59419;BME280;45224;50.904;6.038;2023-05-29T06:36:52;100507.53;;;12.78;73.46
59419;BME280;45224;50.904;6.038;2023-05-29T06:38:22;100502.38;;;12.96;72.28
59419;BME280;45224;50.904;6.038;2023-05-29T06:39:53;100505.00;;;13.18;71.99
59419;BME280;45224;50.904;6.038;2023-05-29T06:41:23;100498.97;;;13.16;71.27
59419;BME280;45224;50.904;6.038;2023-05-29T06:42:55;100502.28;;;12.63;72.56
59419;BME280;45224;50.904;6.038;2023-05-29T06:44:39;100511.03;;;13.05;72.21
59419;BME280;45224;50.904;6.038;2023-05-29T06:46:10;100511.06;;;13.20;72.72
59419;BME280;45224;50.904;6.038;2023-05-29T06:47:42;100512.84;;;13.41;71.20
59419;BME280;45224;50.904;6.038;2023-05-29T06:49:13;100504.16;;;13.68;69.34
59419;BME280;45224;50.904;6.038;2023-05-29T06:50:43;100505.91;;;13.37;70.17
59419;BME280;45224;50.904;6.038;2023-05-29T06:52:34;100504.09;;;12.91;71.57
59419;BME280;45224;50.904;6.038;2023-05-29T06:54:19;100505.88;;;13.28;71.24
59419;BME280;45224;50.904;6.038;2023-05-29T06:55:52;100506.75;;;13.70;69.90
59419;BME280;45224;50.904;6.038;2023-05-29T06:57:23;100505.84;;;13.08;70.76
59419;BME280;45224;50.904;6.038;2023-05-29T06:58:53;100515.41;;;13.24;71.06
59419;BME280;45224;50.904;6.038;2023-05-29T07:00:26;100518.03;;;13.58;70.24
59419;BME280;45224;50.904;6.038;2023-05-29T07:02:16;100524.94;;;13.78;70.19
59419;BME280;45224;50.904;6.038;2023-05-29T07:03:53;100526.69;;;13.63;69.07
59419;BME280;45224;50.904;6.038;2023-05-29T07:05:23;100522.28;;;13.95;68.49
59419;BME280;45224;50.904;6.038;2023-05-29T07:06:54;100522.28;;;13.93;68.16
59419;BME280;45224;50.904;6.038;2023-05-29T07:08:27;100519.63;;;14.21;68.19
59419;BME280;45224;50.904;6.038;2023-05-29T07:09:58;100523.13;;;14.17;67.98
59419;BME280;45224;50.904;6.038;2023-05-29T07:11:28;100520.38;;;14.57;67.55
59419;BME280;45224;50.904;6.038;2023-05-29T07:12:59;100522.09;;;14.59;66.29
59419;BME280;45224;50.904;6.038;2023-05-29T07:14:30;100526.28;;;14.90;65.17
59419;BME280;45224;50.904;6.038;2023-05-29T07:16:01;100519.25;;;15.04;64.60
59419;BME280;45224;50.904;6.038;2023-05-29T07:17:36;100517.41;;;15.22;64.25
59419;BME280;45224;50.904;6.038;2023-05-29T07:19:17;100526.31;;;14.81;63.55
59419;BME280;45224;50.904;6.038;2023-05-29T07:20:48;100523.00;;;14.51;65.28
59419;BME280;45224;50.904;6.038;2023-05-29T07:22:22;100509.88;;;14.72;64.69
59419;BME280;45224;50.904;6.038;2023-05-29T07:23:52;100511.59;;;14.78;64.19
59419;BME280;45224;50.904;6.038;2023-05-29T07:25:23;100524.28;;;15.26;63.19
59419;BME280;45224;50.904;6.038;2023-05-29T07:26:54;100512.81;;;15.48;63.29
59419;BME280;45224;50.904;6.038;2023-05-29T07:28:25;100522.25;;;15.65;62.50
59419;BME280;45224;50.904;6.038;2023-05-29T07:29:56;100512.50;;;14.69;63.81
59419;BME280;45224;50.904;6.038;2023-05-29T07:31:27;100518.22;;;15.28;63.03
59419;BME280;45224;50.904;6.038;2023-05-29T07:32:58;100512.16;;;15.28;63.42
59419;BME280;45224;50.904;6.038;2023-05-29T07:34:28;100517.13;;;15.56;62.94
59419;BME280;45224;50.904;6.038;2023-05-29T07:35:59;100517.53;;;15.00;63.35
59419;BME280;45224;50.904;6.038;2023-05-29T07:37:30;100515.44;;;15.45;63.11
59419;BME280;45224;50.904;6.038;2023-05-29T07:39:02;100513.78;;;15.38;62.40
59419;BME280;45224;50.904;6.038;2023-05-29T07:40:34;100505.69;;;15.70;61.76
59419;BME280;45224;50.904;6.038;2023-05-29T07:42:27;100517.13;;;15.52;63.19
59419;BME280;45224;50.904;6.038;2023-05-29T07:43:58;100516.25;;;15.55;61.26
59419;BME280;45224;50.904;6.038;2023-05-29T07:45:28;100513.63;;;15.57;63.08
59419;BME280;45224;50.904;6.038;2023-05-29T07:46:59;100517.69;;;15.88;61.95
59419;BME280;45224;50.904;6.038;2023-05-29T07:48:41;100516.50;;;16.19;60.80
59419;BME280;45224;50.904;6.038;2023-05-29T07:50:14;100511.19;;;16.27;58.50
59419;BME280;45224;50.904;6.038;2023-05-29T07:51:44;100510.09;;;16.46;59.45
59419;BME280;45224;50.904;6.038;2023-05-29T07:53:15;100513.91;;;16.87;59.17
59419;BME280;45224;50.904;6.038;2023-05-29T07:54:46;100519.66;;;16.47;58.13
59419;BME280;45224;50.904;6.038;2023-05-29T07:56:17;100516.63;;;16.79;57.74
59419;BME280;45224;50.904;6.038;2023-05-29T07:57:48;100516.53;;;16.83;56.50
59419;BME280;45224;50.904;6.038;2023-05-29T07:59:19;100513.13;;;16.77;57.80
59419;BME280;45224;50.904;6.038;2023-05-29T08:00:49;100522.66;;;16.83;57.19
59419;BME280;45224;50.904;6.038;2023-05-29T08:02:21;100520.19;;;16.72;58.11
59419;BME280;45224;50.904;6.038;2023-05-29T08:04:12;100522.66;;;16.86;56.59
59419;BME280;45224;50.904;6.038;2023-05-29T08:05:42;100525.25;;;16.85;58.18